createdAt,value
2024-05-09T00:00:36.106Z,100.00
2024-05-09T08:05:57.179Z,100.00
2024-05-09T08:08:23.851Z,100.00
2024-05-09T08:10:51.262Z,100.00
2024-05-09T08:13:18.369Z,100.00
2024-05-09T08:15:45.247Z,100.00
2024-05-09T08:18:12.319Z,100.00
2024-05-09T08:20:40.090Z,100.00
2024-05-09T08:23:07.236Z,100.00
2024-05-09T08:25:34.023Z,100.00
2024-05-09T08:28:01.098Z,100.00
2024-05-09T08:30:33.735Z,100.00
2024-05-09T08:33:05.149Z,100.00
2024-05-09T08:35:33.045Z,100.00
2024-05-09T08:37:59.988Z,100.00
2024-05-09T08:40:34.057Z,100.00
2024-05-09T08:43:10.266Z,100.00
2024-05-09T08:45:43.165Z,100.00
2024-05-09T08:48:12.781Z,100.00
2024-05-09T08:50:43.202Z,100.00
2024-05-09T08:53:10.224Z,100.00
2024-05-09T08:55:40.054Z,100.00
2024-05-09T08:58:12.630Z,100.00
2024-05-09T09:00:42.231Z,100.00
2024-05-09T09:03:11.667Z,100.00
2024-05-09T09:05:40.665Z,100.00
2024-05-09T09:08:08.902Z,100.00
2024-05-09T09:10:35.945Z,100.00
2024-05-09T09:13:05.120Z,100.00
2024-05-09T09:15:33.022Z,100.00
2024-05-09T09:18:00.999Z,100.00
2024-05-09T09:20:35.923Z,100.00
2024-05-09T09:23:04.232Z,100.00
2024-05-09T09:25:31.708Z,100.00
2024-05-09T09:27:59.140Z,100.00
2024-05-09T09:30:36.397Z,100.00
2024-05-09T09:33:11.909Z,100.00
2024-05-09T09:35:42.072Z,100.00
2024-05-09T09:38:10.832Z,100.00
2024-05-09T09:40:44.819Z,100.00
2024-05-09T09:43:19.665Z,100.00
2024-05-09T09:45:49.841Z,100.00
2024-05-09T09:48:16.942Z,100.00
2024-05-09T09:50:45.553Z,100.00
2024-05-09T09:53:14.041Z,100.00
2024-05-09T09:55:42.023Z,100.00
2024-05-09T09:58:13.249Z,100.00
2024-05-09T10:00:41.008Z,100.00
2024-05-09T10:03:07.916Z,100.00
2024-05-09T10:05:35.392Z,100.00
2024-05-09T10:08:07.446Z,100.00
2024-05-09T10:10:36.138Z,100.00
2024-05-09T10:13:04.249Z,100.00
2024-05-09T10:15:43.009Z,100.00
2024-05-09T10:18:10.251Z,100.00
2024-05-09T10:20:56.210Z,100.00
2024-05-09T10:23:33.494Z,100.00
2024-05-09T10:26:06.295Z,100.00
2024-05-09T10:28:42.534Z,100.00
2024-05-09T10:31:15.237Z,100.00
2024-05-09T10:33:51.354Z,100.00
2024-05-09T10:36:21.816Z,100.00
2024-05-09T10:38:49.742Z,100.00
2024-05-09T10:41:17.144Z,100.00
2024-05-09T10:43:43.885Z,100.00
2024-05-09T10:46:11.830Z,100.00
2024-05-09T10:48:39.834Z,100.00
2024-05-09T10:51:07.904Z,100.00
2024-05-09T10:53:42.632Z,100.00
2024-05-09T10:56:10.085Z,100.00
2024-05-09T10:58:37.102Z,100.00
2024-05-09T11:01:06.788Z,100.00
2024-05-09T11:03:34.570Z,100.00
2024-05-09T11:06:01.618Z,100.00
2024-05-09T11:08:29.413Z,100.00
2024-05-09T11:10:56.571Z,100.00
2024-05-09T11:13:27.950Z,100.00
2024-05-09T11:15:54.905Z,100.00
2024-05-09T11:18:25.114Z,99.97
2024-05-09T11:20:53.320Z,95.53
2024-05-09T11:23:21.989Z,95.05
2024-05-09T11:25:53.247Z,100.00
2024-05-09T11:28:20.788Z,91.08
2024-05-09T11:30:48.954Z,91.40
2024-05-09T11:33:17.637Z,100.00
2024-05-09T11:35:45.634Z,92.80
2024-05-09T11:38:14.075Z,100.00
2024-05-09T11:40:40.957Z,95.46
2024-05-09T11:43:07.782Z,100.00
2024-05-09T11:45:34.757Z,89.64
2024-05-09T11:48:02.013Z,84.99
2024-05-09T11:50:33.147Z,86.91
2024-05-09T11:53:02.767Z,100.00
2024-05-09T11:55:29.606Z,100.00
2024-05-09T11:57:57.557Z,99.44
2024-05-09T12:00:33.932Z,100.00
2024-05-09T12:03:05.645Z,96.04
2024-05-09T12:05:33.639Z,99.51
2024-05-09T12:08:01.066Z,96.12
2024-05-09T12:10:33.285Z,84.74
2024-05-09T12:13:04.726Z,89.46
2024-05-09T12:15:33.146Z,83.54
2024-05-09T12:18:02.950Z,100.00
2024-05-09T12:20:36.803Z,100.00
2024-05-09T12:23:06.370Z,98.21
2024-05-09T12:25:33.425Z,89.18
2024-05-09T12:28:00.716Z,85.01
2024-05-09T12:30:36.015Z,100.00
2024-05-09T12:33:07.681Z,92.76
2024-05-09T12:35:34.895Z,83.82
2024-05-09T12:38:01.762Z,82.56
2024-05-09T12:40:35.658Z,92.66
2024-05-09T12:43:09.099Z,97.64
2024-05-09T12:45:37.485Z,95.37
2024-05-09T12:48:07.485Z,84.73
2024-05-09T12:50:35.175Z,97.21
2024-05-09T12:53:03.741Z,91.25
2024-05-09T12:55:37.759Z,95.64
2024-05-09T12:58:12.259Z,81.07
2024-05-09T13:00:39.239Z,97.75
2024-05-09T13:03:06.361Z,100.00
2024-05-09T13:05:33.788Z,86.22
2024-05-09T13:08:01.052Z,100.00
2024-05-09T13:10:32.183Z,87.96
2024-05-09T13:13:01.334Z,84.17
2024-05-09T13:15:30.735Z,100.00
2024-05-09T13:18:00.472Z,93.92
2024-05-09T13:20:33.666Z,97.82
2024-05-09T13:23:03.735Z,91.58
2024-05-09T13:25:30.615Z,88.09
2024-05-09T13:27:57.935Z,100.00
2024-05-09T13:30:33.772Z,100.00
2024-05-09T13:33:06.904Z,90.41
2024-05-09T13:35:35.665Z,100.00
2024-05-09T13:38:03.941Z,100.00
2024-05-09T13:40:34.525Z,100.00
2024-05-09T13:43:06.294Z,100.00
2024-05-09T13:45:33.866Z,100.00
2024-05-09T13:48:02.573Z,100.00
2024-05-09T13:50:35.898Z,100.00
2024-05-09T13:53:07.953Z,100.00
2024-05-09T13:55:38.988Z,100.00
2024-05-09T13:58:06.840Z,100.00
2024-05-09T14:00:44.074Z,100.00
2024-05-09T14:03:16.434Z,100.00
2024-05-09T14:05:44.436Z,100.00
2024-05-09T14:08:11.972Z,100.00
2024-05-09T14:10:44.700Z,100.00
2024-05-09T14:13:12.677Z,100.00
2024-05-09T14:15:39.614Z,100.00
2024-05-09T14:18:10.361Z,100.00
2024-05-09T14:20:39.788Z,100.00
2024-05-09T14:23:06.430Z,100.00
2024-05-09T14:25:36.766Z,100.00
2024-05-09T14:28:06.598Z,100.00
2024-05-09T14:30:37.336Z,97.13
2024-05-09T14:33:06.546Z,100.00
2024-05-09T14:35:34.516Z,100.00
2024-05-09T14:38:01.587Z,100.00
2024-05-09T14:43:01.068Z,100.00
2024-05-09T14:45:29.465Z,100.00
2024-05-09T14:47:56.551Z,100.00
2024-05-09T14:50:28.313Z,99.33
2024-05-09T14:53:02.063Z,86.33
2024-05-09T14:55:29.093Z,98.57
2024-05-09T14:57:55.851Z,100.00
2024-05-09T15:00:28.785Z,95.95
2024-05-09T15:03:00.801Z,100.00
2024-05-09T15:05:27.733Z,93.94
2024-05-09T15:07:54.574Z,93.59
2024-05-09T15:10:27.534Z,100.00
2024-05-09T15:13:01.310Z,100.00
2024-05-09T15:15:28.192Z,100.00
2024-05-09T15:17:55.799Z,99.72
2024-05-09T15:20:31.208Z,100.00
2024-05-09T15:23:02.822Z,100.00
2024-05-09T15:25:29.840Z,100.00
2024-05-09T15:27:57.055Z,100.00
2024-05-09T15:32:53.662Z,91.25
2024-05-09T15:35:20.432Z,100.00
2024-05-09T15:37:48.536Z,100.00
2024-05-09T15:40:22.472Z,97.00
2024-05-09T15:42:58.055Z,100.00
2024-05-09T15:45:24.878Z,98.09
2024-05-09T15:47:51.688Z,100.00
2024-05-09T15:50:28.190Z,100.00
2024-05-09T15:53:02.340Z,100.00
2024-05-09T15:55:33.953Z,100.00
2024-05-09T15:58:02.636Z,100.00
2024-05-09T16:00:37.448Z,100.00
2024-05-09T16:03:08.131Z,94.12
2024-05-09T16:05:35.186Z,100.00
2024-05-09T16:08:02.505Z,81.47
2024-05-09T16:10:32.941Z,84.38
2024-05-09T16:13:02.196Z,90.62
2024-05-09T16:15:29.629Z,91.83
2024-05-09T16:17:56.686Z,94.82
2024-05-09T16:22:53.677Z,85.38
2024-05-09T16:25:20.467Z,93.33
2024-05-09T16:27:47.700Z,90.55
2024-05-09T16:30:21.350Z,94.83
2024-05-09T16:32:56.078Z,89.03
2024-05-09T16:35:22.941Z,93.27
2024-05-09T16:37:50.008Z,95.92
2024-05-09T16:40:25.429Z,93.57
2024-05-09T16:43:03.648Z,94.44
2024-05-09T16:45:30.800Z,94.13
2024-05-09T16:48:00.312Z,96.84
2024-05-09T16:50:32.504Z,96.58
2024-05-09T16:53:02.094Z,95.65
2024-05-09T16:55:29.047Z,85.89
2024-05-09T16:57:57.288Z,95.08
2024-05-09T17:00:35.235Z,91.16
2024-05-09T17:03:08.819Z,90.87
2024-05-09T17:05:36.423Z,75.20
2024-05-09T17:08:03.815Z,80.12
2024-05-09T17:10:33.727Z,83.76
2024-05-09T17:13:02.930Z,77.92
2024-05-09T17:15:30.151Z,69.02
2024-05-09T17:17:57.140Z,76.84
2024-05-09T17:20:31.793Z,78.23
2024-05-09T17:23:02.441Z,79.86
2024-05-09T17:25:29.469Z,68.60
2024-05-09T17:27:56.667Z,75.34
2024-05-09T17:30:31.949Z,81.68
2024-05-09T17:33:03.639Z,82.74
2024-05-09T17:35:31.770Z,85.00
2024-05-09T17:37:59.856Z,85.50
2024-05-09T17:40:33.221Z,86.35
2024-05-09T17:43:03.604Z,86.68
2024-05-09T17:45:30.800Z,85.33
2024-05-09T17:47:58.327Z,86.69
2024-05-09T17:50:31.658Z,86.47
2024-05-09T17:53:02.607Z,88.47
2024-05-09T17:55:29.674Z,88.36
2024-05-09T17:57:56.937Z,91.17
2024-05-09T18:00:36.100Z,91.33
2024-05-09T18:03:06.832Z,93.22
2024-05-09T18:05:36.748Z,96.68
2024-05-09T18:08:04.339Z,97.47
2024-05-09T18:10:36.670Z,98.19
2024-05-09T18:13:06.904Z,96.88
2024-05-09T18:15:34.285Z,97.78
2024-05-09T18:18:02.007Z,99.13
2024-05-09T18:20:37.996Z,99.48
2024-05-09T18:23:11.066Z,99.39
2024-05-09T18:25:37.820Z,100.00
2024-05-09T18:28:05.193Z,100.00
2024-05-09T18:30:35.326Z,100.00
2024-05-09T18:33:05.564Z,100.00
2024-05-09T18:35:33.712Z,100.00
2024-05-09T18:38:00.637Z,100.00
2024-05-09T18:40:32.988Z,100.00
2024-05-09T18:43:04.166Z,100.00
2024-05-09T18:45:31.355Z,100.00
2024-05-09T18:47:58.438Z,100.00
2024-05-09T18:50:34.256Z,100.00
2024-05-09T18:53:07.859Z,100.00
2024-05-09T18:55:35.200Z,100.00
2024-05-09T18:58:02.879Z,100.00
2024-05-09T19:00:35.679Z,100.00
2024-05-09T19:03:09.622Z,100.00
2024-05-09T19:05:39.365Z,100.00
2024-05-09T19:08:07.667Z,100.00
2024-05-09T19:10:35.982Z,100.00
2024-05-09T19:13:08.478Z,100.00
2024-05-09T19:15:39.493Z,100.00
2024-05-09T19:18:07.260Z,100.00
2024-05-09T19:20:35.988Z,100.00
2024-05-09T19:23:04.496Z,100.00
2024-05-09T19:25:32.149Z,100.00
2024-05-09T19:27:59.986Z,100.00
2024-05-09T19:30:36.416Z,100.00
2024-05-09T19:33:07.713Z,100.00
2024-05-09T19:35:34.655Z,100.00
2024-05-09T19:38:01.956Z,100.00
2024-05-09T19:40:32.137Z,100.00
2024-05-09T19:43:05.551Z,100.00
2024-05-09T19:45:34.388Z,100.00
2024-05-09T19:48:02.294Z,100.00
2024-05-09T19:50:37.223Z,100.00
2024-05-09T19:53:10.121Z,100.00
2024-05-09T19:55:37.460Z,100.00
2024-05-09T19:58:05.680Z,100.00
2024-05-09T20:00:40.076Z,100.00
2024-05-09T20:03:09.515Z,100.00
2024-05-09T20:05:37.702Z,100.00
2024-05-09T20:08:05.812Z,100.00
2024-05-09T20:10:35.125Z,100.00
2024-05-09T20:13:04.318Z,100.00
2024-05-09T20:15:32.316Z,100.00
2024-05-09T20:17:59.308Z,100.00
2024-05-09T20:20:34.981Z,100.00
2024-05-09T20:23:06.253Z,100.00
2024-05-09T20:25:33.128Z,100.00
2024-05-09T20:27:59.983Z,100.00
2024-05-09T20:30:32.034Z,100.00
2024-05-09T20:33:02.824Z,100.00
2024-05-09T20:35:32.129Z,100.00
2024-05-09T20:37:59.344Z,100.00
2024-05-09T20:40:32.414Z,100.00
2024-05-09T20:43:02.858Z,100.00
2024-05-09T20:45:29.690Z,100.00
2024-05-09T20:47:57.556Z,100.00
2024-05-09T20:50:35.359Z,100.00
2024-05-09T20:53:08.049Z,100.00
2024-05-09T20:55:34.807Z,100.00
2024-05-09T20:58:01.639Z,100.00
2024-05-09T21:00:35.433Z,100.00
2024-05-09T21:03:07.586Z,100.00
2024-05-09T21:05:35.157Z,100.00
2024-05-09T21:08:02.469Z,100.00
2024-05-09T21:10:32.912Z,100.00
2024-05-09T21:13:02.667Z,100.00
2024-05-09T21:15:30.326Z,100.00
2024-05-09T21:17:57.098Z,100.00
2024-05-09T21:20:30.616Z,100.00
2024-05-09T21:22:59.565Z,100.00
2024-05-09T21:25:26.465Z,100.00
2024-05-09T21:27:53.390Z,100.00
2024-05-09T21:30:31.783Z,100.00
2024-05-09T21:33:09.123Z,100.00
2024-05-09T21:35:36.899Z,100.00
2024-05-09T21:38:04.642Z,100.00
2024-05-09T21:40:34.847Z,100.00
2024-05-09T21:43:04.028Z,100.00
2024-05-09T21:45:30.976Z,100.00
2024-05-09T21:47:57.873Z,100.00
2024-05-09T21:50:32.275Z,100.00
2024-05-09T21:53:06.719Z,100.00
2024-05-09T21:55:34.118Z,100.00
2024-05-09T21:58:01.042Z,100.00
2024-05-09T22:00:35.617Z,100.00
2024-05-09T22:03:05.756Z,100.00
2024-05-09T22:05:32.856Z,100.00
2024-05-09T22:07:59.796Z,100.00
2024-05-09T22:10:32.863Z,100.00
2024-05-09T22:13:02.373Z,100.00
2024-05-09T22:15:29.250Z,100.00
2024-05-09T22:17:57.451Z,100.00
2024-05-09T22:20:34.132Z,100.00
2024-05-09T22:23:04.956Z,100.00
2024-05-09T22:25:32.812Z,100.00
2024-05-09T22:28:01.228Z,100.00
2024-05-09T22:30:35.680Z,100.00
2024-05-09T22:33:10.773Z,100.00
2024-05-09T22:35:39.176Z,100.00
2024-05-09T22:38:06.238Z,100.00
2024-05-09T22:40:42.744Z,100.00
2024-05-09T22:43:21.739Z,100.00
2024-05-09T22:45:50.713Z,100.00
2024-05-09T22:48:18.098Z,100.00
2024-05-09T22:50:44.904Z,100.00
2024-05-09T22:53:11.807Z,100.00
2024-05-09T22:55:38.484Z,100.00
2024-05-09T22:58:05.308Z,100.00
2024-05-09T23:00:33.248Z,100.00
2024-05-09T23:03:01.373Z,100.00
2024-05-09T23:05:28.702Z,100.00
2024-05-09T23:07:55.575Z,100.00
2024-05-09T23:10:30.834Z,100.00
2024-05-09T23:13:02.270Z,100.00
2024-05-09T23:15:29.115Z,100.00
2024-05-09T23:17:57.438Z,100.00
2024-05-09T23:22:54.154Z,100.00
2024-05-09T23:25:20.899Z,100.00
2024-05-09T23:27:47.884Z,100.00
2024-05-09T23:30:28.262Z,100.00
2024-05-09T23:33:01.574Z,100.00
2024-05-09T23:35:28.483Z,100.00
2024-05-09T23:37:55.494Z,100.00
2024-05-09T23:40:23.517Z,100.00
2024-05-09T23:42:53.425Z,100.00
2024-05-09T23:45:20.160Z,100.00
2024-05-09T23:47:47.277Z,100.00
2024-05-09T23:50:20.379Z,100.00
2024-05-09T23:52:50.426Z,100.00
2024-05-09T23:55:17.318Z,100.00
2024-05-09T23:57:44.095Z,100.00
